Ionis — SVKU — position and weather

sailwx.info

Track history (hours):
 
Tides and Currents Weather Stations Pressure Air Temp Water Temp Dewpoint Dewpoint Depression Visibility Wind Speed Wind Dir Waves Ship Positions

Ionis

Last reported at 2017-Nov-24 03:29 UTC. Time now 2017-Nov-24 03:55 UTC.
Position N 37°57' E 023°38'.

Length 96 m; draft 4 m.

Type: Passenger vessel. MMSI: 237026400.

Date/timePositionNaut miles runAvg speedWind from/ knotsBaromVisibWave heightAir tempDewpointWater temp
2017-Nov-24 03:29N 37°57' E 023°38'0 0.0
2017-Nov-24 02:59N 37°57' E 023°38'0 0.0
2017-Nov-24 02:25N 37°57' E 023°38'0 0.0
2017-Nov-24 01:59N 37°57' E 023°38'0 0.0
2017-Nov-24 01:29N 37°57' E 023°38'0 0.0
2017-Nov-24 00:59N 37°57' E 023°38'0 0.0
2017-Nov-24 00:30N 37°57' E 023°38'0 0.0
2017-Nov-23 23:59N 37°57' E 023°38'0 0.0
2017-Nov-23 23:28N 37°57' E 023°38'0 0.0
2017-Nov-23 22:59N 37°57' E 023°38'0 0.0
2017-Nov-23 22:30N 37°57' E 023°38'0 0.0
2017-Nov-23 22:00N 37°57' E 023°38'0 0.0
2017-Nov-23 21:29N 37°57' E 023°38'0 0.0
2017-Nov-23 20:56N 37°57' E 023°38'0 0.0
2017-Nov-23 20:29N 37°57' E 023°38'0 0.0
2017-Nov-23 19:54N 37°57' E 023°38'0 0.0
2017-Nov-23 19:29N 37°57' E 023°38'0 0.0
2017-Nov-23 18:59N 37°57' E 023°38'3 5.4
2017-Nov-23 18:31N 37°54' E 023°37'816.6
2017-Nov-23 18:01N 37°47' E 023°41'816.1
2017-Nov-23 17:30N 37°39' E 023°44'916.5
2017-Nov-23 16:59N 37°31' E 023°41'1016.9
2017-Nov-23 16:22N 37°21' E 023°37'716.8
2017-Nov-23 15:58N 37°15' E 023°34'816.9
2017-Nov-23 15:30N 37°07' E 023°31'817.0
2017-Nov-23 15:01N 36°59' E 023°27'89 5.2
2017-Nov-22 21:47N 35°31' E 023°38'  
2017-Nov-20 00:28N 37°57' E 023°38'0 0.0
2017-Nov-19 23:59N 37°57' E 023°38'0 0.0
2017-Nov-19 23:23N 37°57' E 023°38'0 0.0
2017-Nov-19 22:59N 37°57' E 023°38'0 0.0
2017-Nov-19 22:28N 37°57' E 023°38'0 0.0
2017-Nov-19 22:00N 37°57' E 023°38'0 0.0
2017-Nov-19 21:30N 37°57' E 023°38'0 0.0
2017-Nov-19 21:00N 37°57' E 023°38'3 6.5
2017-Nov-19 20:30N 37°54' E 023°38'816.3
2017-Nov-19 20:00N 37°46' E 023°42'815.7
2017-Nov-19 19:30N 37°39' E 023°44'1816.5
2017-Nov-19 18:25N 37°22' E 023°37'1 0.0
2017-Nov-17 14:34N 37°21' E 023°36'116.4
2017-Nov-17 14:30N 37°22' E 023°37'1616.2
2017-Nov-17 13:30N 37°37' E 023°41'815.6
2017-Nov-17 13:00N 37°45' E 023°39'815.8
2017-Nov-17 12:30N 37°52' E 023°37'5 3.3
2017-Nov-17 11:06N 37°57' E 023°38'0 0.1
2017-Nov-17 11:00N 37°57' E 023°38'0 0.0
2017-Nov-17 10:30N 37°57' E 023°38'0 0.0
2017-Nov-17 09:58N 37°57' E 023°38'0 0.0
2017-Nov-17 09:29N 37°57' E 023°38'0 0.0
2017-Nov-17 08:58N 37°57' E 023°38'0 0.0
2017-Nov-17 08:30N 37°57' E 023°38'0 0.0
2017-Nov-17 07:59N 37°57' E 023°38'0 0.0
2017-Nov-17 07:28N 37°57' E 023°38'0 0.0
2017-Nov-17 06:58N 37°57' E 023°38'0 0.0
2017-Nov-17 06:25N 37°57' E 023°38'0 0.0
2017-Nov-17 05:59N 37°57' E 023°38'0 0.0
2017-Nov-17 05:29N 37°57' E 023°38'0 0.0
2017-Nov-17 05:00N 37°57' E 023°38'0 0.0
2017-Nov-17 04:29N 37°57' E 023°38'0 0.0
2017-Nov-17 03:58N 37°57' E 023°38'0 0.0
2017-Nov-17 03:28N 37°57' E 023°38'0 0.0
2017-Nov-17 02:59N 37°57' E 023°38'0 0.0
2017-Nov-17 02:30N 37°57' E 023°38'0 0.0
2017-Nov-17 02:00N 37°57' E 023°38'0 0.0
2017-Nov-17 01:28N 37°57' E 023°38'0 0.0
2017-Nov-17 00:54N 37°57' E 023°38'0 0.0
2017-Nov-17 00:30N 37°57' E 023°38'0 0.0
2017-Nov-16 23:58N 37°57' E 023°38'0 0.0
2017-Nov-16 23:27N 37°57' E 023°38'0 0.0
2017-Nov-16 23:00N 37°57' E 023°38'0 0.0
2017-Nov-16 22:28N 37°57' E 023°38'0 0.0
2017-Nov-16 21:59N 37°57' E 023°38'0 0.0
2017-Nov-16 21:29N 37°57' E 023°38'0 0.0
2017-Nov-16 20:59N 37°57' E 023°38'0 0.0
2017-Nov-16 20:30N 37°57' E 023°38'0 0.0
2017-Nov-16 19:59N 37°57' E 023°38'0 0.0
2017-Nov-16 19:27N 37°57' E 023°38'1 3.2
2017-Nov-16 19:00N 37°56' E 023°37'815.8
2017-Nov-16 18:30N 37°49' E 023°41'1116.0
2017-Nov-16 17:49N 37°38' E 023°45'1816.1
2017-Nov-16 16:43N 37°21' E 023°37'  
2017-Nov-14 10:42N 37°21' E 023°36'1415.9
2017-Nov-14 09:50N 37°34' E 023°41'615.9
2017-Nov-14 09:29N 37°39' E 023°42'816.0
2017-Nov-14 09:00N 37°47' E 023°38'815.8
2017-Nov-14 08:30N 37°54' E 023°36'3 5.6
2017-Nov-14 07:58N 37°57' E 023°38'0 0.0
2017-Nov-14 07:28N 37°57' E 023°38'0 0.0
2017-Nov-14 06:57N 37°57' E 023°38'0 0.0
2017-Nov-14 06:28N 37°57' E 023°38'0 0.0
2017-Nov-14 05:59N 37°57' E 023°38'0 0.0
2017-Nov-14 05:30N 37°57' E 023°38'0 0.0
2017-Nov-14 04:54N 37°57' E 023°38'0 0.0
2017-Nov-14 04:29N 37°57' E 023°38'0 0.0
2017-Nov-14 03:58N 37°57' E 023°38'0 0.0
2017-Nov-14 03:30N 37°57' E 023°38'  
Track history (hours):
 
Tides and Currents Weather Stations Pressure Air Temp Water Temp Dewpoint Dewpoint Depression Visibility Wind Speed Wind Dir Waves Ship Positions

Ionis

Last reported at 2017-Nov-24 03:29 UTC. Time now 2017-Nov-24 03:55 UTC.
Position N 37°57' E 023°38'.

Length 96 m; draft 4 m.

Type: Passenger vessel. MMSI: 237026400.

Date/timePositionNaut miles runAvg speedWind from/ knotsBaromVisibWave heightAir tempDewpointWater temp
2017-Nov-24 03:29N 37°57' E 023°38'0 0.0
2017-Nov-24 02:59N 37°57' E 023°38'0 0.0
2017-Nov-24 02:25N 37°57' E 023°38'0 0.0
2017-Nov-24 01:59N 37°57' E 023°38'0 0.0
2017-Nov-24 01:29N 37°57' E 023°38'0 0.0
2017-Nov-24 00:59N 37°57' E 023°38'0 0.0
2017-Nov-24 00:30N 37°57' E 023°38'0 0.0
2017-Nov-23 23:59N 37°57' E 023°38'0 0.0
2017-Nov-23 23:28N 37°57' E 023°38'0 0.0
2017-Nov-23 22:59N 37°57' E 023°38'0 0.0
2017-Nov-23 22:30N 37°57' E 023°38'0 0.0
2017-Nov-23 22:00N 37°57' E 023°38'0 0.0
2017-Nov-23 21:29N 37°57' E 023°38'0 0.0
2017-Nov-23 20:56N 37°57' E 023°38'0 0.0
2017-Nov-23 20:29N 37°57' E 023°38'0 0.0
2017-Nov-23 19:54N 37°57' E 023°38'0 0.0
2017-Nov-23 19:29N 37°57' E 023°38'0 0.0
2017-Nov-23 18:59N 37°57' E 023°38'3 5.4
2017-Nov-23 18:31N 37°54' E 023°37'816.6
2017-Nov-23 18:01N 37°47' E 023°41'816.1
2017-Nov-23 17:30N 37°39' E 023°44'916.5
2017-Nov-23 16:59N 37°31' E 023°41'1016.9
2017-Nov-23 16:22N 37°21' E 023°37'716.8
2017-Nov-23 15:58N 37°15' E 023°34'816.9
2017-Nov-23 15:30N 37°07' E 023°31'817.0
2017-Nov-23 15:01N 36°59' E 023°27'89 5.2
2017-Nov-22 21:47N 35°31' E 023°38'  
2017-Nov-20 00:28N 37°57' E 023°38'0 0.0
2017-Nov-19 23:59N 37°57' E 023°38'0 0.0
2017-Nov-19 23:23N 37°57' E 023°38'0 0.0
2017-Nov-19 22:59N 37°57' E 023°38'0 0.0
2017-Nov-19 22:28N 37°57' E 023°38'0 0.0
2017-Nov-19 22:00N 37°57' E 023°38'0 0.0
2017-Nov-19 21:30N 37°57' E 023°38'0 0.0
2017-Nov-19 21:00N 37°57' E 023°38'3 6.5
2017-Nov-19 20:30N 37°54' E 023°38'816.3
2017-Nov-19 20:00N 37°46' E 023°42'815.7
2017-Nov-19 19:30N 37°39' E 023°44'1816.5
2017-Nov-19 18:25N 37°22' E 023°37'1 0.0
2017-Nov-17 14:34N 37°21' E 023°36'116.4
2017-Nov-17 14:30N 37°22' E 023°37'1616.2
2017-Nov-17 13:30N 37°37' E 023°41'815.6
2017-Nov-17 13:00N 37°45' E 023°39'815.8
2017-Nov-17 12:30N 37°52' E 023°37'5 3.3
2017-Nov-17 11:06N 37°57' E 023°38'0 0.1
2017-Nov-17 11:00N 37°57' E 023°38'0 0.0
2017-Nov-17 10:30N 37°57' E 023°38'0 0.0
2017-Nov-17 09:58N 37°57' E 023°38'0 0.0
2017-Nov-17 09:29N 37°57' E 023°38'0 0.0
2017-Nov-17 08:58N 37°57' E 023°38'0 0.0
2017-Nov-17 08:30N 37°57' E 023°38'0 0.0
2017-Nov-17 07:59N 37°57' E 023°38'0 0.0
2017-Nov-17 07:28N 37°57' E 023°38'0 0.0
2017-Nov-17 06:58N 37°57' E 023°38'0 0.0
2017-Nov-17 06:25N 37°57' E 023°38'0 0.0
2017-Nov-17 05:59N 37°57' E 023°38'0 0.0
2017-Nov-17 05:29N 37°57' E 023°38'0 0.0
2017-Nov-17 05:00N 37°57' E 023°38'0 0.0
2017-Nov-17 04:29N 37°57' E 023°38'0 0.0
2017-Nov-17 03:58N 37°57' E 023°38'0 0.0
2017-Nov-17 03:28N 37°57' E 023°38'0 0.0
2017-Nov-17 02:59N 37°57' E 023°38'0 0.0
2017-Nov-17 02:30N 37°57' E 023°38'0 0.0
2017-Nov-17 02:00N 37°57' E 023°38'0 0.0
2017-Nov-17 01:28N 37°57' E 023°38'0 0.0
2017-Nov-17 00:54N 37°57' E 023°38'0 0.0
2017-Nov-17 00:30N 37°57' E 023°38'0 0.0
2017-Nov-16 23:58N 37°57' E 023°38'0 0.0
2017-Nov-16 23:27N 37°57' E 023°38'0 0.0
2017-Nov-16 23:00N 37°57' E 023°38'0 0.0
2017-Nov-16 22:28N 37°57' E 023°38'0 0.0
2017-Nov-16 21:59N 37°57' E 023°38'0 0.0
2017-Nov-16 21:29N 37°57' E 023°38'0 0.0
2017-Nov-16 20:59N 37°57' E 023°38'0 0.0
2017-Nov-16 20:30N 37°57' E 023°38'0 0.0
2017-Nov-16 19:59N 37°57' E 023°38'0 0.0
2017-Nov-16 19:27N 37°57' E 023°38'1 3.2
2017-Nov-16 19:00N 37°56' E 023°37'815.8
2017-Nov-16 18:30N 37°49' E 023°41'1116.0
2017-Nov-16 17:49N 37°38' E 023°45'1816.1
2017-Nov-16 16:43N 37°21' E 023°37'  
2017-Nov-14 10:42N 37°21' E 023°36'1415.9
2017-Nov-14 09:50N 37°34' E 023°41'615.9
2017-Nov-14 09:29N 37°39' E 023°42'816.0
2017-Nov-14 09:00N 37°47' E 023°38'815.8
2017-Nov-14 08:30N 37°54' E 023°36'3 5.6
2017-Nov-14 07:58N 37°57' E 023°38'0 0.0
2017-Nov-14 07:28N 37°57' E 023°38'0 0.0
2017-Nov-14 06:57N 37°57' E 023°38'0 0.0
2017-Nov-14 06:28N 37°57' E 023°38'0 0.0
2017-Nov-14 05:59N 37°57' E 023°38'0 0.0
2017-Nov-14 05:30N 37°57' E 023°38'0 0.0
2017-Nov-14 04:54N 37°57' E 023°38'0 0.0
2017-Nov-14 04:29N 37°57' E 023°38'0 0.0
2017-Nov-14 03:58N 37°57' E 023°38'0 0.0
2017-Nov-14 03:30N 37°57' E 023°38'  

Dump ship's entire track history